Time;durP1;ratioP1;P1;durP2;ratioP2;P2;SDS_P1;SDS_P2;PMS_P1;PMS_P2;Temp;Humidity;BMP_temperature;BMP_pressure;BME280_temperature;BME280_humidity;BME280_pressure;Samples;Min_cycle;Max_cycle;Signal;HPM_P1;HPM_P2
2021/01/01 00:07:11;;;;;;;39.13;21.83;;;;;;;-1.23;88.19;98741.53;493840;1144;65551;-65
2021/01/01 00:17:14;;;;;;;35.70;20.80;;;;;;;-1.25;88.59;98745.89;493474;1144;65181;-65
2021/01/01 00:27:18;;;;;;;36.47;18.13;;;;;;;-1.25;87.89;98753.62;493892;1144;65111;-64
2021/01/01 00:37:22;;;;;;;38.97;21.07;;;;;;;-1.31;87.77;98762.37;494143;1144;65130;-67
2021/01/01 00:47:26;;;;;;;34.57;17.40;;;;;;;-1.35;88.67;98764.17;494019;1144;65452;-64
2021/01/01 00:57:30;;;;;;;32.35;17.40;;;;;;;-1.41;88.07;98766.91;494116;1144;65127;-60
2021/01/01 01:07:34;;;;;;;36.60;19.50;;;;;;;-1.44;88.17;98767.87;493484;1144;65204;-62
2021/01/01 01:17:41;;;;;;;24.87;13.47;;;;;;;-1.61;88.27;98760.61;493133;1144;65596;-64
2021/01/01 01:27:45;;;;;;;32.88;15.95;;;;;;;-1.57;88.86;98763.92;494093;1144;65682;-62
2021/01/01 01:37:49;;;;;;;30.97;15.90;;;;;;;-1.49;88.95;98766.31;493642;1144;65121;-61
2021/01/01 01:47:53;;;;;;;33.47;17.47;;;;;;;-1.45;88.92;98771.30;493116;1144;65130;-62
2021/01/01 01:57:59;;;;;;;31.30;16.45;;;;;;;-1.41;88.54;98778.08;493438;1144;65168;-62
2021/01/01 02:08:03;;;;;;;36.17;17.67;;;;;;;-1.41;88.36;98778.08;494701;1144;65127;-60
2021/01/01 02:18:07;;;;;;;30.40;16.23;;;;;;;-1.36;87.95;98774.52;493183;1144;65204;-62
2021/01/01 02:28:12;;;;;;;34.50;18.40;;;;;;;-1.37;88.25;98768.53;493810;1144;65202;-61
2021/01/01 02:38:16;;;;;;;35.17;17.57;;;;;;;-1.36;88.00;98764.21;493083;1143;65116;-61
2021/01/01 02:48:21;;;;;;;35.40;19.40;;;;;;;-1.38;88.19;98760.84;493202;1144;65204;-61
2021/01/01 02:58:27;;;;;;;40.45;22.80;;;;;;;-1.36;88.04;98764.21;493406;1144;65561;-60
2021/01/01 03:08:31;;;;;;;46.00;21.13;;;;;;;-1.38;87.95;98763.41;493361;1144;65203;-62
2021/01/01 03:18:35;;;;;;;34.47;16.10;;;;;;;-1.35;88.53;98765.89;493715;1144;65138;-61
2021/01/01 03:28:39;;;;;;;38.20;18.80;;;;;;;-1.37;88.45;98762.52;493452;1144;65156;-61
2021/01/01 03:38:42;;;;;;;33.80;18.47;;;;;;;-1.30;88.22;98769.20;493821;1144;65127;-61
2021/01/01 03:48:46;;;;;;;27.80;16.40;;;;;;;-1.37;87.79;98759.95;494251;1144;65204;-61
2021/01/01 03:58:51;;;;;;;30.03;15.63;;;;;;;-1.43;87.43;98766.98;494134;1144;65203;-61
2021/01/01 04:08:55;;;;;;;32.40;17.03;;;;;;;-1.49;87.50;98756.84;494199;1144;65183;-61
2021/01/01 04:18:59;;;;;;;24.20;14.15;;;;;;;-1.53;87.85;98756.96;493407;1144;65269;-61
2021/01/01 04:29:03;;;;;;;30.73;16.77;;;;;;;-1.66;87.68;98765.03;493488;1144;65199;-61
2021/01/01 04:39:08;;;;;;;24.80;14.00;;;;;;;-1.65;88.39;98769.28;493935;1144;65484;-62
2021/01/01 04:49:12;;;;;;;31.35;14.25;;;;;;;-1.64;87.85;98763.25;493798;1144;65130;-62
2021/01/01 04:59:17;;;;;;;24.43;12.87;;;;;;;-1.82;88.15;98780.03;494138;1144;65113;-61
2021/01/01 05:09:21;;;;;;;23.50;13.10;;;;;;;-1.94;88.12;98775.21;493880;1143;65108;-61
2021/01/01 05:19:35;;;;;;;23.80;13.43;;;;;;;-2.01;87.84;98769.38;493342;1144;65133;-60
2021/01/01 05:29:50;;;;;;;26.25;12.90;;;;;;;-2.02;88.26;98763.41;493704;1144;65188;-62
2021/01/01 05:40:02;;;;;;;23.17;13.57;;;;;;;-2.05;88.27;98776.33;492532;1144;65704;-61
2021/01/01 05:50:09;;;;;;;22.60;12.97;;;;;;;-2.22;87.88;98776.75;493471;1144;65111;-61
2021/01/01 06:00:15;;;;;;;22.93;13.40;;;;;;;-2.30;88.04;98782.09;494000;1143;65174;-61
2021/01/01 06:10:21;;;;;;;23.85;12.90;;;;;;;-2.33;87.91;98786.46;493820;1144;65566;-62
2021/01/01 06:20:25;;;;;;;20.83;13.80;;;;;;;-2.38;88.18;98790.88;493187;1144;65197;-60
2021/01/01 06:30:29;;;;;;;24.27;13.70;;;;;;;-2.47;88.21;98797.92;493392;1144;65124;-61
2021/01/01 06:40:35;;;;;;;27.20;15.00;;;;;;;-2.46;88.57;98801.36;493338;1144;65157;-60
2021/01/01 06:50:41;;;;;;;22.80;10.93;;;;;;;-2.49;88.51;98809.98;493559;1144;65105;-62
2021/01/01 07:00:56;;;;;;;30.00;16.50;;;;;;;-2.48;88.52;98824.52;493461;1144;65121;-61
2021/01/01 07:11:00;;;;;;;32.00;16.97;;;;;;;-2.50;88.54;98822.85;493730;1143;65204;-61
2021/01/01 07:21:06;;;;;;;29.10;14.17;;;;;;;-2.47;88.42;98827.95;493830;1144;65188;-62
2021/01/01 07:31:14;;;;;;;22.27;11.43;;;;;;;-2.51;88.27;98831.45;493672;1144;65567;-60
2021/01/01 07:41:23;;;;;;;26.23;12.27;;;;;;;-2.58;88.19;98836.75;493719;1144;65134;-62
2021/01/01 07:51:27;;;;;;;29.53;13.47;;;;;;;-2.54;88.26;98848.64;493848;1144;65181;-61
2021/01/01 08:01:49;;;;;;;22.40;13.37;;;;;;;-2.45;88.47;98841.61;494279;1144;65332;-61
2021/01/01 08:12:06;;;;;;;22.57;12.30;;;;;;;-2.38;88.40;98847.45;494090;1144;65181;-59
2021/01/01 08:22:13;;;;;;;29.23;15.87;;;;;;;-2.33;88.21;98851.61;485600;1144;10001963;-60
2021/01/01 08:32:26;;;;;;;22.50;13.33;;;;;;;-2.40;88.04;98853.48;493655;1144;65187;-61
2021/01/01 08:42:35;;;;;;;29.20;15.47;;;;;;;-2.37;88.40;98862.00;493605;1144;65098;-61
2021/01/01 08:52:40;;;;;;;25.10;14.55;;;;;;;-2.26;88.24;98858.28;493190;1144;65178;-61
2021/01/01 09:02:46;;;;;;;26.07;14.17;;;;;;;-2.26;88.29;98858.28;493525;1144;65216;-60
2021/01/01 09:12:50;;;;;;;26.60;12.77;;;;;;;-2.20;88.65;98862.44;493268;1144;65468;-61
2021/01/01 09:23:02;;;;;;;26.07;15.13;;;;;;;-2.12;88.10;98857.13;493217;1144;65180;-60
2021/01/01 09:33:08;;;;;;;24.07;12.70;;;;;;;-2.04;88.21;98854.38;493447;1144;65265;-61
2021/01/01 09:43:12;;;;;;;24.43;13.55;;;;;;;-1.94;88.05;98862.70;493134;1144;65198;-60
2021/01/01 09:53:16;;;;;;;27.23;13.57;;;;;;;-1.95;87.79;98838.72;501152;1144;65113;-61
2021/01/01 10:03:20;;;;;;;23.90;15.10;;;;;;;-1.85;88.28;98834.17;494220;1144;65130;-62
2021/01/01 10:13:24;;;;;;;22.37;13.90;;;;;;;-1.86;87.71;98833.31;494130;1144;65863;-60
2021/01/01 10:23:28;;;;;;;20.40;14.17;;;;;;;-1.91;87.95;98836.88;493933;1144;65155;-61
2021/01/01 10:33:33;;;;;;;34.43;17.13;;;;;;;-1.88;87.23;98840.23;493463;1144;65203;-60
2021/01/01 10:43:37;;;;;;;29.15;17.10;;;;;;;-1.84;88.01;98833.28;493411;1144;65201;-60
2021/01/01 10:53:41;;;;;;;35.55;19.70;;;;;;;-1.71;87.95;98823.53;493890;1144;65141;-61
2021/01/01 11:03:45;;;;;;;26.20;16.53;;;;;;;-1.64;87.90;98817.31;493834;1144;65137;-64
2021/01/01 11:13:51;;;;;;;26.40;15.10;;;;;;;-1.58;86.97;98819.73;493861;1144;65136;-60
2021/01/01 12:26:29;;;;;;;34.10;18.60;;;;;;;-1.56;86.65;98806.80;493522;1144;65108;-61
2021/01/01 12:36:39;;;;;;;35.03;18.00;;;;;;;-1.72;86.96;98816.69;493477;1144;65243;-62
2021/01/01 12:46:43;;;;;;;32.20;19.00;;;;;;;-1.87;87.02;98823.91;493752;1143;65480;-61
2021/01/01 12:56:50;;;;;;;33.33;19.73;;;;;;;-1.85;87.16;98821.30;493698;1144;65564;-61
2021/01/01 13:06:54;;;;;;;37.73;22.13;;;;;;;-1.77;87.21;98821.95;493591;1144;65613;-60
2021/01/01 13:16:58;;;;;;;38.57;22.13;;;;;;;-1.79;87.19;98812.58;492702;1144;65147;-59
2021/01/01 13:27:02;;;;;;;38.07;22.17;;;;;;;-1.80;87.28;98824.59;492908;1144;65602;-62
2021/01/01 13:37:06;;;;;;;36.57;20.03;;;;;;;-1.91;87.04;98832.59;493337;1144;65140;-61
2021/01/01 13:47:10;;;;;;;41.95;25.45;;;;;;;-1.97;87.15;98836.16;493485;1144;65142;-60
2021/01/01 13:57:14;;;;;;;32.80;18.33;;;;;;;-2.05;87.16;98839.82;492961;1144;65561;-63
2021/01/01 14:07:18;;;;;;;29.77;18.53;;;;;;;-2.17;86.98;98838.38;493679;1144;65207;-62
2021/01/01 14:17:23;;;;;;;36.67;20.40;;;;;;;-2.22;87.15;98840.23;493321;1144;65594;-62
2021/01/01 14:27:27;;;;;;;29.20;19.77;;;;;;;-2.16;87.20;98850.35;497033;1144;65191;-60
2021/01/01 14:37:31;;;;;;;37.03;21.47;;;;;;;-2.09;87.30;98862.20;493228;1144;65137;-61
2021/01/01 14:47:36;;;;;;;33.43;21.37;;;;;;;-2.04;87.30;98854.38;493301;1144;65329;-65
2021/01/01 14:57:43;;;;;;;35.55;21.45;;;;;;;-2.08;87.20;98861.31;493866;1144;65502;-60
2021/01/01 15:07:47;;;;;;;35.50;20.83;;;;;;;-2.05;87.41;98860.41;493184;1144;65188;-55
2021/01/01 15:17:52;;;;;;;34.87;20.63;;;;;;;-2.04;87.42;98865.49;494041;1144;65204;-57
2021/01/01 15:27:56;;;;;;;37.77;24.40;;;;;;;-2.06;87.30;98874.98;495061;1144;65143;-61
2021/01/01 15:38:01;;;;;;;32.87;19.53;;;;;;;-2.02;87.47;98883.48;510941;1143;62903;-62
2021/01/01 15:48:06;;;;;;;34.03;20.43;;;;;;;-1.97;87.36;98918.51;498043;1144;65449;-68
2021/01/01 15:58:10;;;;;;;35.97;21.63;;;;;;;-1.93;87.23;98903.84;494296;1144;65573;-64
2021/01/01 16:08:14;;;;;;;34.40;19.70;;;;;;;-1.92;87.49;98899.53;494661;1144;65596;-60
2021/01/01 16:18:18;;;;;;;33.70;21.37;;;;;;;-1.85;87.68;98906.23;493751;1144;65647;-60
2021/01/01 16:28:22;;;;;;;34.13;20.30;;;;;;;-1.89;87.36;98917.49;493870;1144;65554;-66
2021/01/01 16:38:26;;;;;;;30.40;20.93;;;;;;;-1.94;87.51;98904.73;493896;1144;65134;-63
2021/01/01 16:48:34;;;;;;;36.67;20.80;;;;;;;-1.94;87.37;98925.32;493598;1144;65564;-64
2021/01/01 16:58:39;;;;;;;35.37;21.07;;;;;;;-1.94;87.07;98927.89;493367;1144;65140;-59
2021/01/01 17:08:42;;;;;;;40.40;23.60;;;;;;;-1.95;86.76;98933.92;493813;1144;65141;-63
2021/01/01 17:18:47;;;;;;;41.17;25.40;;;;;;;-1.91;86.93;98955.26;493257;1144;65119;-65
2021/01/01 17:28:51;;;;;;;42.17;24.77;;;;;;;-1.94;87.24;98957.91;493752;1143;65577;-59
2021/01/01 17:38:55;;;;;;;41.67;26.63;;;;;;;-1.89;86.69;98963.81;493649;1144;65105;-59
2021/01/01 17:48:59;;;;;;;43.87;27.97;;;;;;;-1.91;87.14;98976.70;493625;1144;65201;-58
2021/01/01 17:59:05;;;;;;;49.30;28.57;;;;;;;-1.94;86.57;98979.36;493843;1144;65253;-62
2021/01/01 18:09:10;;;;;;;53.13;30.83;;;;;;;-1.97;86.92;98981.98;493618;1144;65130;-60
2021/01/01 18:19:14;;;;;;;63.53;35.47;;;;;;;-1.85;86.95;98976.58;493813;1143;65115;-59
2021/01/01 18:29:21;;;;;;;51.20;28.57;;;;;;;-1.72;86.93;98977.12;493673;1144;65204;-59
2021/01/01 18:39:26;;;;;;;72.13;35.50;;;;;;;-1.66;86.75;98981.28;493610;1144;65615;-51
2021/01/01 18:49:30;;;;;;;58.87;32.77;;;;;;;-1.67;86.55;98971.86;493551;1144;65230;-60
2021/01/01 18:59:52;;;;;;;62.27;32.90;;;;;;;-1.70;86.44;98980.50;493489;1143;65187;-60
2021/01/01 19:09:59;;;;;;;68.50;36.55;;;;;;;-1.76;86.79;98990.09;493989;1144;65232;-59
2021/01/01 19:20:10;;;;;;;62.45;32.75;;;;;;;-1.86;86.79;98995.45;493496;1143;65184;-53
2021/01/01 19:30:23;;;;;;;65.30;34.60;;;;;;;-1.84;87.00;99000.58;493852;1144;65133;-55
2021/01/01 19:40:44;;;;;;;71.53;35.83;;;;;;;-1.90;86.99;98985.28;493865;1144;65204;-58
2021/01/01 19:51:04;;;;;;;60.37;32.27;;;;;;;-1.88;87.21;99011.83;493838;1144;65118;-58
2021/01/01 20:01:23;;;;;;;62.65;32.20;;;;;;;-1.85;86.81;99045.21;493878;1144;65367;-58
2021/01/01 20:11:30;;;;;;;74.03;37.17;;;;;;;-1.85;87.25;99047.78;494289;1144;65207;-58
2021/01/01 20:21:36;;;;;;;64.60;33.80;;;;;;;-1.84;86.88;99055.48;493677;1144;65119;-58
2021/01/01 20:31:42;;;;;;;66.90;36.83;;;;;;;-1.83;87.28;99061.45;493832;1144;65201;-59
2021/01/01 20:42:14;;;;;;;62.47;36.67;;;;;;;-1.85;87.60;99079.53;492821;1144;65567;-57
2021/01/01 21:02:47;;;;;;;80.27;42.37;;;;;;;-1.60;87.48;99080.70;493700;1144;65243;-56
2021/01/01 21:13:01;;;;;;;62.83;35.83;;;;;;;-1.59;86.92;99090.98;493900;1144;65110;-62
2021/01/01 21:23:37;;;;;;;73.90;39.83;;;;;;;-1.60;87.26;99101.30;493749;1144;65111;-61
2021/01/01 21:34:08;;;;;;;76.62;41.48;;;;;;;-1.52;87.16;99114.00;485314;1144;10003379;-59
2021/01/01 21:44:44;;;;;;;70.05;38.85;;;;;;;-1.49;87.46;99125.09;493099;1144;65239;-59
2021/01/01 21:54:50;;;;;;;63.50;34.67;;;;;;;-1.47;86.81;99105.29;493652;1144;65107;-60
2021/01/01 22:04:58;;;;;;;70.90;35.93;;;;;;;-1.43;87.97;99126.67;493412;1144;65127;-57
2021/01/01 22:15:04;;;;;;;61.80;36.20;;;;;;;-1.36;87.55;99145.41;492895;1144;65110;-63
2021/01/01 22:25:11;;;;;;;70.40;37.35;;;;;;;-1.30;87.53;99129.83;493072;1144;66469;-62
2021/01/01 22:35:15;;;;;;;73.40;41.77;;;;;;;-1.27;87.42;99143.50;493410;1144;65245;-62
2021/01/01 22:45:21;;;;;;;73.23;40.40;;;;;;;-1.23;86.96;99170.02;493529;1144;65554;-59
2021/01/01 22:55:26;;;;;;;66.17;36.90;;;;;;;-1.16;87.44;99165.56;493328;1142;65139;-60
2021/01/01 23:05:32;;;;;;;72.63;40.20;;;;;;;-1.09;87.40;99174.03;494093;1144;65159;-59
2021/01/01 23:15:38;;;;;;;73.90;40.93;;;;;;;-1.08;87.88;99179.13;493898;1142;65204;-60
2021/01/01 23:26:01;;;;;;;88.17;44.63;;;;;;;-1.14;87.83;99179.29;494373;1144;65210;-69
2021/01/01 23:36:15;;;;;;;70.33;41.40;;;;;;;-1.16;87.81;99186.18;494144;1144;65156;-70
2021/01/01 23:46:21;;;;;;;74.57;41.67;;;;;;;-1.14;86.84;99184.44;493510;1144;65780;-72
2021/01/01 23:56:29;;;;;;;75.93;41.60;;;;;;;-1.00;87.57;99196.98;493718;1144;65116;-69
